Time;durP1;ratioP1;P1;durP2;ratioP2;P2;SDS_P1;SDS_P2;PMS_P1;PMS_P2;Temp;Humidity;BMP_temperature;BMP_pressure;BME280_temperature;BME280_humidity;BME280_pressure;Samples;Min_cycle;Max_cycle;Signal;HPM_P1;HPM_P2
2023/08/08 00:02:16;;;;;;;10.25;3.53;;;;;;;;;;5150777;27;20083;-75
2023/08/08 00:04:42;;;;;;;10.10;4.63;;;;;;;;;;5150368;27;20049;-74
2023/08/08 00:07:08;;;;;;;9.27;4.60;;;;;;;;;;5151522;27;20440;-75
2023/08/08 00:09:34;;;;;;;11.23;5.45;;;;;;;;;;5151679;27;20098;-74
2023/08/08 00:12:00;;;;;;;11.80;5.28;;;;;;;;;;5151433;27;20137;-75
2023/08/08 00:14:26;;;;;;;9.02;5.45;;;;;;;;;;5151767;27;20484;-75
2023/08/08 00:16:52;;;;;;;11.68;5.20;;;;;;;;;;5149948;27;20027;-75
2023/08/08 00:19:18;;;;;;;14.40;5.93;;;;;;;;;;5151770;27;20029;-75
2023/08/08 00:21:44;;;;;;;11.65;5.97;;;;;;;;;;5151410;27;20495;-74
2023/08/08 00:24:10;;;;;;;8.10;5.63;;;;;;;;;;5151210;27;20442;-75
2023/08/08 00:26:36;;;;;;;12.05;5.55;;;;;;;;;;5149205;27;20049;-75
2023/08/08 00:29:02;;;;;;;8.15;4.90;;;;;;;;;;5150337;27;20027;-74
2023/08/08 00:31:28;;;;;;;9.88;4.45;;;;;;;;;;5150823;27;20041;-75
2023/08/08 00:33:54;;;;;;;7.57;4.40;;;;;;;;;;5150264;27;20033;-75
2023/08/08 00:36:20;;;;;;;9.18;4.38;;;;;;;;;;5150696;27;20453;-75
2023/08/08 00:38:46;;;;;;;7.00;3.60;;;;;;;;;;5149890;27;20054;-75
2023/08/08 00:41:11;;;;;;;9.05;5.03;;;;;;;;;;5150329;27;20038;-75
2023/08/08 00:43:37;;;;;;;7.53;3.67;;;;;;;;;;5150972;27;20030;-74
2023/08/08 00:46:03;;;;;;;9.23;5.57;;;;;;;;;;5149501;27;20083;-75
2023/08/08 00:48:31;;;;;;;9.18;4.95;;;;;;;;;;5150943;27;20114;-75
2023/08/08 00:50:57;;;;;;;9.80;5.47;;;;;;;;;;5150323;27;20027;-74
2023/08/08 00:53:25;;;;;;;10.95;5.35;;;;;;;;;;5150756;27;20031;-75
2023/08/08 00:55:52;;;;;;;9.48;5.88;;;;;;;;;;5150563;27;20420;-74
2023/08/08 00:58:18;;;;;;;13.90;5.70;;;;;;;;;;5150759;27;20049;-74
2023/08/08 01:00:44;;;;;;;7.13;4.70;;;;;;;;;;5150121;27;20062;-74
2023/08/08 01:03:10;;;;;;;9.25;4.70;;;;;;;;;;5151199;27;20392;-75
2023/08/08 01:05:39;;;;;;;12.05;6.25;;;;;;;;;;5154255;27;20018;-75
2023/08/08 01:08:07;;;;;;;12.23;5.93;;;;;;;;;;5154076;27;20106;-75
2023/08/08 01:10:40;;;;;;;9.27;4.65;;;;;;;;;;5154021;27;20102;-75
2023/08/08 01:13:09;;;;;;;11.18;6.00;;;;;;;;;;5153983;27;20031;-75
2023/08/08 01:15:36;;;;;;;10.20;5.15;;;;;;;;;;5153651;27;20416;-75
2023/08/08 01:18:04;;;;;;;10.93;5.97;;;;;;;;;;5153752;27;20041;-74
2023/08/08 01:20:30;;;;;;;11.98;5.20;;;;;;;;;;5153929;27;20029;-75
2023/08/08 01:23:00;;;;;;;8.80;4.30;;;;;;;;;;5153819;27;20030;-75
2023/08/08 01:25:26;;;;;;;15.57;6.43;;;;;;;;;;5152478;27;20095;-76
2023/08/08 01:27:52;;;;;;;11.18;5.18;;;;;;;;;;5153474;27;20476;-76
2023/08/08 01:30:18;;;;;;;11.45;4.97;;;;;;;;;;5152517;27;20026;-77
2023/08/08 01:32:44;;;;;;;15.75;5.88;;;;;;;;;;5152622;27;20026;-76
2023/08/08 01:35:10;;;;;;;9.50;6.30;;;;;;;;;;5153882;27;20065;-76
2023/08/08 01:37:40;;;;;;;13.30;5.68;;;;;;;;;;5153505;27;20047;-75
2023/08/08 01:40:06;;;;;;;;;;;;;;;;;;5153836;27;20026;-76
2023/08/08 01:42:32;;;;;;;11.88;4.88;;;;;;;;;;5153376;27;20382;-76
2023/08/08 01:44:58;;;;;;;13.77;6.22;;;;;;;;;;5152276;27;20019;-76
2023/08/08 01:47:24;;;;;;;12.75;5.65;;;;;;;;;;5152186;27;20489;-76
2023/08/08 01:49:50;;;;;;;12.40;5.70;;;;;;;;;;5153755;27;20145;-75
2023/08/08 01:52:16;;;;;;;9.40;4.90;;;;;;;;;;5153323;27;20035;-75
2023/08/08 01:54:42;;;;;;;9.60;4.93;;;;;;;;;;5153238;27;20491;-75
2023/08/08 01:57:08;;;;;;;13.23;4.93;;;;;;;;;;5153143;27;20117;-76
2023/08/08 01:59:34;;;;;;;12.05;4.75;;;;;;;;;;5152037;27;20027;-76
2023/08/08 02:02:00;;;;;;;11.00;4.80;;;;;;;;;;5151439;27;20026;-75
2023/08/08 02:04:26;;;;;;;14.60;5.72;;;;;;;;;;5152547;27;20031;-75
2023/08/08 02:06:52;;;;;;;11.82;4.38;;;;;;;;;;5151584;27;20019;-75
2023/08/08 02:09:18;;;;;;;11.63;4.47;;;;;;;;;;5153117;27;20481;-76
2023/08/08 02:11:44;;;;;;;11.35;4.95;;;;;;;;;;5152647;27;20030;-77
2023/08/08 02:14:10;;;;;;;10.02;5.22;;;;;;;;;;5151663;27;20018;-76
2023/08/08 02:16:36;;;;;;;9.20;4.47;;;;;;;;;;5151820;27;20042;-77
2023/08/08 02:19:02;;;;;;;6.43;3.42;;;;;;;;;;5152970;27;20033;-76
2023/08/08 02:21:28;;;;;;;9.35;4.07;;;;;;;;;;5152673;27;20035;-76
2023/08/08 02:23:54;;;;;;;9.82;4.63;;;;;;;;;;5150870;27;20588;-76
2023/08/08 02:26:20;;;;;;;9.88;5.32;;;;;;;;;;5152562;27;20041;-76
2023/08/08 02:28:46;;;;;;;7.30;3.60;;;;;;;;;;5152452;27;20033;-76
2023/08/08 02:31:12;;;;;;;12.85;4.60;;;;;;;;;;5152421;27;20034;-76
2023/08/08 02:33:38;;;;;;;11.30;4.78;;;;;;;;;;5152486;27;20054;-77
2023/08/08 02:36:04;;;;;;;9.07;4.97;;;;;;;;;;5151094;27;20034;-77
2023/08/08 02:38:30;;;;;;;9.32;3.80;;;;;;;;;;5150945;27;20047;-76
2023/08/08 02:40:56;;;;;;;8.88;3.63;;;;;;;;;;5152091;27;20027;-76
2023/08/08 02:43:22;;;;;;;8.10;3.75;;;;;;;;;;5151927;27;20053;-77
2023/08/08 02:45:49;;;;;;;11.65;5.90;;;;;;;;;;5152896;27;20071;-75
2023/08/08 02:48:15;;;;;;;12.48;5.13;;;;;;;;;;5152259;27;20023;-77
2023/08/08 02:50:41;;;;;;;9.07;3.90;;;;;;;;;;5152052;27;20036;-76
2023/08/08 02:53:07;;;;;;;13.98;4.72;;;;;;;;;;5150466;27;20019;-77
2023/08/08 02:55:33;;;;;;;10.75;4.63;;;;;;;;;;5151460;27;20029;-76
2023/08/08 02:57:59;;;;;;;11.13;5.20;;;;;;;;;;5152710;27;20085;-76
2023/08/08 03:00:25;;;;;;;13.55;5.18;;;;;;;;;;5152197;27;20038;-76
2023/08/08 03:02:51;;;;;;;12.48;4.55;;;;;;;;;;5151409;27;20030;-76
2023/08/08 03:05:17;;;;;;;9.98;4.88;;;;;;;;;;5151943;27;20800;-75
2023/08/08 03:07:43;;;;;;;13.35;5.10;;;;;;;;;;5152457;27;20031;-76
2023/08/08 03:10:09;;;;;;;6.70;3.55;;;;;;;;;;5151353;27;20026;-75
2023/08/08 03:12:35;;;;;;;10.15;3.80;;;;;;;;;;5152029;27;20053;-76
2023/08/08 03:15:01;;;;;;;9.73;4.20;;;;;;;;;;5151899;27;20022;-77
2023/08/08 03:17:27;;;;;;;9.95;3.55;;;;;;;;;;5151529;27;20030;-77
2023/08/08 03:19:53;;;;;;;9.38;4.18;;;;;;;;;;5151792;27;20062;-76
2023/08/08 03:22:19;;;;;;;14.25;5.60;;;;;;;;;;5150584;27;20737;-75
2023/08/08 03:24:44;;;;;;;10.13;5.72;;;;;;;;;;5151264;27;20031;-74
2023/08/08 03:27:10;;;;;;;12.75;5.13;;;;;;;;;;5151491;27;20388;-74
2023/08/08 03:29:37;;;;;;;9.32;3.88;;;;;;;;;;5151330;27;20030;-76
2023/08/08 03:32:04;;;;;;;19.35;7.47;;;;;;;;;;5152010;27;20758;-75
2023/08/08 03:34:30;;;;;;;19.67;7.90;;;;;;;;;;5151034;27;20027;-77
2023/08/08 03:36:56;;;;;;;12.18;6.28;;;;;;;;;;5151150;27;20385;-76
2023/08/08 03:39:22;;;;;;;17.70;8.40;;;;;;;;;;5151074;27;20019;-75
2023/08/08 03:41:48;;;;;;;12.38;6.10;;;;;;;;;;5150957;27;20027;-76
2023/08/08 03:44:14;;;;;;;18.02;8.38;;;;;;;;;;5151436;27;20076;-76
2023/08/08 03:46:40;;;;;;;12.65;7.53;;;;;;;;;;5151235;27;20033;-76
2023/08/08 03:49:06;;;;;;;15.95;8.68;;;;;;;;;;5151042;27;20479;-75
2023/08/08 03:51:32;;;;;;;20.83;9.57;;;;;;;;;;5150893;27;20014;-76
2023/08/08 03:53:58;;;;;;;20.58;9.68;;;;;;;;;;5152051;27;20022;-76
2023/08/08 03:56:24;;;;;;;16.65;6.72;;;;;;;;;;5150777;27;20026;-75
2023/08/08 03:58:50;;;;;;;14.98;8.00;;;;;;;;;;5151029;27;20030;-75
2023/08/08 04:01:16;;;;;;;15.77;7.38;;;;;;;;;;5151048;27;20488;-75
2023/08/08 04:03:42;;;;;;;20.98;10.00;;;;;;;;;;5151734;27;20095;-74
2023/08/08 04:06:08;;;;;;;19.17;9.15;;;;;;;;;;5151904;27;20034;-76
2023/08/08 04:08:34;;;;;;;16.60;7.95;;;;;;;;;;5150853;27;20051;-77
2023/08/08 04:11:00;;;;;;;14.75;7.90;;;;;;;;;;5151890;27;20483;-75
2023/08/08 04:13:26;;;;;;;13.43;7.00;;;;;;;;;;5151829;27;20098;-75
2023/08/08 04:15:52;;;;;;;18.77;8.88;;;;;;;;;;5151057;27;20023;-76
2023/08/08 04:18:18;;;;;;;17.50;9.40;;;;;;;;;;5151851;27;20042;-77
2023/08/08 04:20:46;;;;;;;21.02;9.73;;;;;;;;;;5150226;27;20035;-75
2023/08/08 04:23:13;;;;;;;14.25;7.43;;;;;;;;;;5151791;27;20419;-76
2023/08/08 04:25:39;;;;;;;16.58;8.73;;;;;;;;;;5152033;27;20045;-75
2023/08/08 04:28:05;;;;;;;14.32;7.07;;;;;;;;;;5151854;27;20537;-74
2023/08/08 04:30:31;;;;;;;19.27;8.43;;;;;;;;;;5150430;27;20038;-75
2023/08/08 04:32:56;;;;;;;17.38;9.15;;;;;;;;;;5151632;27;20019;-74
2023/08/08 04:35:22;;;;;;;12.70;7.78;;;;;;;;;;5151468;27;20027;-75
2023/08/08 04:37:48;;;;;;;17.67;8.80;;;;;;;;;;5153159;27;20202;-74
2023/08/08 04:40:14;;;;;;;18.77;9.45;;;;;;;;;;5154284;27;20026;-73
2023/08/08 04:42:40;;;;;;;17.85;6.90;;;;;;;;;;5154522;27;20829;-74
2023/08/08 04:45:07;;;;;;;13.13;6.97;;;;;;;;;;5155702;27;20071;-75
2023/08/08 04:47:33;;;;;;;19.13;10.13;;;;;;;;;;5155220;27;20452;-75
2023/08/08 04:49:59;;;;;;;23.85;10.98;;;;;;;;;;5155365;27;20077;-75
2023/08/08 04:52:25;;;;;;;17.33;8.15;;;;;;;;;;5156341;27;20395;-76
2023/08/08 04:54:51;;;;;;;17.15;8.30;;;;;;;;;;5154879;27;20476;-76
2023/08/08 04:57:17;;;;;;;16.92;7.68;;;;;;;;;;5154277;27;20048;-74
2023/08/08 04:59:43;;;;;;;23.77;10.88;;;;;;;;;;5155589;27;20087;-76
2023/08/08 05:02:09;;;;;;;21.65;9.40;;;;;;;;;;5155628;27;20058;-77
2023/08/08 05:04:35;;;;;;;18.98;8.18;;;;;;;;;;5156092;27;20047;-76
2023/08/08 05:07:01;;;;;;;13.70;7.80;;;;;;;;;;5153858;27;20026;-76
2023/08/08 05:09:27;;;;;;;14.93;6.93;;;;;;;;;;5155343;27;20069;-75
2023/08/08 05:11:53;;;;;;;18.13;8.07;;;;;;;;;;5156753;27;20030;-74
2023/08/08 05:14:20;;;;;;;23.25;7.97;;;;;;;;;;5155315;27;20054;-76
2023/08/08 05:16:46;;;;;;;17.52;8.38;;;;;;;;;;5155481;27;20029;-76
2023/08/08 05:19:12;;;;;;;21.60;10.27;;;;;;;;;;5155751;27;20091;-75
2023/08/08 05:21:38;;;;;;;16.10;7.85;;;;;;;;;;5154325;27;20027;-74
2023/08/08 05:24:04;;;;;;;16.73;8.13;;;;;;;;;;5155184;27;20081;-74
2023/08/08 05:26:30;;;;;;;20.80;9.95;;;;;;;;;;5155132;27;20095;-74
2023/08/08 05:28:56;;;;;;;15.77;9.30;;;;;;;;;;5154910;27;20072;-74
2023/08/08 05:31:22;;;;;;;17.60;9.13;;;;;;;;;;5155033;27;20035;-75
2023/08/08 05:33:51;;;;;;;20.88;10.35;;;;;;;;;;5153228;27;20029;-75
2023/08/08 05:36:17;;;;;;;18.60;9.60;;;;;;;;;;5154492;27;20049;-74
2023/08/08 05:38:43;;;;;;;23.20;9.65;;;;;;;;;;5154464;27;20502;-74
2023/08/08 05:41:09;;;;;;;21.55;11.23;;;;;;;;;;5154754;27;20034;-77
2023/08/08 05:43:36;;;;;;;17.98;9.32;;;;;;;;;;5153051;27;20459;-76
2023/08/08 05:46:02;;;;;;;13.27;8.05;;;;;;;;;;5154733;27;20072;-76
2023/08/08 05:48:28;;;;;;;16.45;8.00;;;;;;;;;;5154172;27;20075;-76
2023/08/08 05:50:54;;;;;;;21.30;10.27;;;;;;;;;;5153773;27;20023;-73
2023/08/08 05:53:20;;;;;;;19.52;10.40;;;;;;;;;;5155145;27;20029;-75
2023/08/08 05:55:46;;;;;;;15.65;7.68;;;;;;;;;;5153224;27;20031;-76
2023/08/08 05:58:12;;;;;;;18.83;10.35;;;;;;;;;;5153063;27;20072;-77
2023/08/08 06:00:38;;;;;;;19.02;8.88;;;;;;;;;;5153442;27;20023;-77
2023/08/08 06:03:05;;;;;;;14.25;7.50;;;;;;;;;;5153471;27;20029;-75
2023/08/08 06:05:31;;;;;;;21.92;10.60;;;;;;;;;;5154471;27;20202;-73
2023/08/08 06:07:57;;;;;;;13.70;7.20;;;;;;;;;;5152671;27;20395;-75
2023/08/08 06:10:23;;;;;;;14.88;9.18;;;;;;;;;;5152953;27;20030;-74
2023/08/08 06:12:49;;;;;;;21.42;9.27;;;;;;;;;;5154092;27;20029;-75
2023/08/08 06:15:15;;;;;;;18.25;9.68;;;;;;;;;;5152627;27;20026;-76
2023/08/08 06:17:41;;;;;;;17.30;10.27;;;;;;;;;;5154659;27;20034;-75
2023/08/08 06:20:08;;;;;;;21.15;9.57;;;;;;;;;;5153636;27;20050;-74
2023/08/08 06:22:34;;;;;;;19.13;8.93;;;;;;;;;;5154042;27;20019;-75
2023/08/08 06:25:00;;;;;;;14.18;6.30;;;;;;;;;;5153020;27;20522;-74
2023/08/08 06:27:26;;;;;;;16.42;6.40;;;;;;;;;;5152532;27;20018;-75
2023/08/08 06:29:52;;;;;;;16.33;7.65;;;;;;;;;;5153664;27;20019;-74
2023/08/08 06:32:18;;;;;;;16.20;7.30;;;;;;;;;;5153959;27;20101;-75
2023/08/08 06:34:44;;;;;;;17.73;7.55;;;;;;;;;;5152162;27;20110;-75
2023/08/08 06:37:10;;;;;;;12.18;5.43;;;;;;;;;;5151341;27;20054;-74
2023/08/08 06:39:38;;;;;;;17.48;5.65;;;;;;;;;;5152324;27;20036;-77
2023/08/08 06:42:04;;;;;;;15.10;6.18;;;;;;;;;;5152501;27;20126;-75
2023/08/08 06:44:33;;;;;;;11.50;5.82;;;;;;;;;;5153263;27;20027;-76
2023/08/08 06:46:59;;;;;;;19.10;6.90;;;;;;;;;;5151152;27;20033;-75
2023/08/08 06:49:24;;;;;;;10.65;4.25;;;;;;;;;;5151240;27;20019;-75
2023/08/08 06:51:50;;;;;;;8.77;3.70;;;;;;;;;;5153277;27;20026;-72
2023/08/08 06:54:16;;;;;;;7.60;2.53;;;;;;;;;;5152337;27;20410;-72
2023/08/08 06:56:42;;;;;;;5.80;2.20;;;;;;;;;;5152961;27;20030;-71
2023/08/08 06:59:08;;;;;;;10.43;2.72;;;;;;;;;;5153144;27;20030;-72
2023/08/08 07:01:35;;;;;;;8.13;2.20;;;;;;;;;;5152066;27;20106;-73
2023/08/08 07:04:01;;;;;;;10.18;2.88;;;;;;;;;;5153169;27;20070;-73
2023/08/08 07:06:27;;;;;;;7.85;2.40;;;;;;;;;;5151576;27;20015;-74
2023/08/08 07:08:56;;;;;;;11.85;2.85;;;;;;;;;;5152804;27;20042;-72
2023/08/08 07:11:22;;;;;;;7.57;2.13;;;;;;;;;;5152931;27;20117;-72
2023/08/08 07:13:48;;;;;;;10.10;2.95;;;;;;;;;;5152629;27;20152;-72
2023/08/08 07:16:14;;;;;;;6.75;2.15;;;;;;;;;;5151652;27;20366;-72
2023/08/08 07:18:40;;;;;;;4.50;1.42;;;;;;;;;;5152600;27;20095;-72
2023/08/08 07:21:06;;;;;;;6.63;1.70;;;;;;;;;;5152538;27;20387;-73
2023/08/08 07:23:32;;;;;;;5.00;1.48;;;;;;;;;;5151549;27;20026;-72
2023/08/08 07:25:58;;;;;;;7.10;1.83;;;;;;;;;;5152382;27;20026;-75
2023/08/08 07:28:24;;;;;;;3.85;1.30;;;;;;;;;;5150375;27;20058;-73
2023/08/08 07:30:50;;;;;;;4.35;1.35;;;;;;;;;;5151475;27;20069;-73
2023/08/08 07:33:16;;;;;;;3.78;1.08;;;;;;;;;;5150682;27;20031;-76
2023/08/08 07:35:42;;;;;;;3.60;1.40;;;;;;;;;;5153477;27;20083;-74
2023/08/08 07:38:09;;;;;;;4.32;0.80;;;;;;;;;;5151464;27;20145;-73
2023/08/08 07:40:36;;;;;;;3.03;0.88;;;;;;;;;;5151252;27;20023;-72
2023/08/08 07:43:02;;;;;;;3.45;0.90;;;;;;;;;;5150166;27;20639;-71
2023/08/08 07:45:28;;;;;;;2.97;1.25;;;;;;;;;;5152238;27;20388;-72
2023/08/08 07:47:54;;;;;;;2.33;0.90;;;;;;;;;;5151394;27;20037;-71
2023/08/08 07:50:20;;;;;;;3.33;1.13;;;;;;;;;;5150421;27;20022;-71
2023/08/08 07:52:46;;;;;;;2.88;1.08;;;;;;;;;;5149986;27;20110;-71
2023/08/08 07:55:12;;;;;;;5.07;1.15;;;;;;;;;;5150628;27;20031;-70
2023/08/08 07:57:39;;;;;;;3.03;0.82;;;;;;;;;;5151350;27;20066;-72
2023/08/08 08:00:11;;;;;;;1.40;0.60;;;;;;;;;;5151487;27;20023;-72
2023/08/08 08:02:37;;;;;;;1.80;0.77;;;;;;;;;;5150686;27;20018;-71
2023/08/08 08:05:05;;;;;;;2.60;1.08;;;;;;;;;;5149827;27;20392;-72
2023/08/08 08:07:31;;;;;;;2.42;1.00;;;;;;;;;;5149376;27;20026;-72
2023/08/08 08:09:58;;;;;;;5.05;1.00;;;;;;;;;;5151134;27;20019;-74
2023/08/08 08:12:24;;;;;;;3.10;0.77;;;;;;;;;;5151066;27;20536;-73
2023/08/08 08:14:50;;;;;;;4.75;1.90;;;;;;;;;;5150826;27;20034;-72
2023/08/08 08:17:16;;;;;;;3.95;1.15;;;;;;;;;;5151292;27;20031;-72
2023/08/08 08:19:42;;;;;;;3.92;0.95;;;;;;;;;;5150221;27;20320;-72
2023/08/08 08:22:08;;;;;;;4.68;0.90;;;;;;;;;;5150683;27;20019;-74
2023/08/08 08:24:34;;;;;;;8.82;0.93;;;;;;;;;;5150494;27;20018;-73
2023/08/08 08:27:01;;;;;;;5.32;1.08;;;;;;;;;;5150821;27;20037;-75
2023/08/08 08:29:27;;;;;;;7.18;1.27;;;;;;;;;;5151077;27;20031;-74
2023/08/08 08:31:53;;;;;;;2.65;0.73;;;;;;;;;;5150424;27;20015;-73
2023/08/08 08:34:19;;;;;;;3.53;1.13;;;;;;;;;;5150945;27;20130;-75
2023/08/08 08:36:45;;;;;;;5.63;1.08;;;;;;;;;;5149375;27;20019;-76
2023/08/08 08:39:12;;;;;;;6.40;0.90;;;;;;;;;;5148936;27;20038;-75
2023/08/08 08:41:38;;;;;;;3.75;0.65;;;;;;;;;;5149964;27;20030;-73
2023/08/08 08:44:06;;;;;;;4.43;0.93;;;;;;;;;;5149461;27;20375;-75
2023/08/08 08:46:33;;;;;;;2.90;0.75;;;;;;;;;;5149506;27;20072;-75
2023/08/08 08:48:59;;;;;;;4.25;0.93;;;;;;;;;;5149009;27;20027;-74
2023/08/08 08:51:25;;;;;;;3.42;1.15;;;;;;;;;;5150898;27;20050;-76
2023/08/08 08:53:52;;;;;;;3.95;0.70;;;;;;;;;;5151037;27;20022;-75
2023/08/08 08:56:18;;;;;;;3.60;0.65;;;;;;;;;;5150752;27;20072;-74
2023/08/08 08:58:45;;;;;;;5.25;0.82;;;;;;;;;;5149617;27;20042;-75
2023/08/08 09:01:12;;;;;;;2.88;0.90;;;;;;;;;;5151441;27;20349;-75
2023/08/08 09:03:38;;;;;;;2.33;0.70;;;;;;;;;;5151570;27;20380;-73
2023/08/08 09:06:05;;;;;;;4.70;0.55;;;;;;;;;;5151999;27;20026;-74
2023/08/08 09:08:31;;;;;;;3.08;0.70;;;;;;;;;;5152276;27;20026;-74
2023/08/08 09:10:57;;;;;;;4.93;1.00;;;;;;;;;;5151802;27;20107;-76
2023/08/08 09:13:26;;;;;;;3.55;0.90;;;;;;;;;;5152392;27;20023;-72
2023/08/08 09:15:53;;;;;;;2.15;0.60;;;;;;;;;;5151360;27;20075;-74
2023/08/08 09:18:19;;;;;;;2.00;0.60;;;;;;;;;;5151100;27;20067;-75
2023/08/08 09:20:49;;;;;;;2.17;0.82;;;;;;;;;;5152708;27;20034;-73
2023/08/08 09:23:15;;;;;;;2.88;1.00;;;;;;;;;;5150983;27;20034;-74
2023/08/08 09:25:41;;;;;;;2.85;0.60;;;;;;;;;;5154715;27;20023;-74
2023/08/08 09:28:07;;;;;;;1.50;0.52;;;;;;;;;;5156094;27;20019;-77
2023/08/08 09:30:34;;;;;;;3.55;0.70;;;;;;;;;;5153185;27;20167;-73
2023/08/08 09:33:03;;;;;;;1.45;0.50;;;;;;;;;;5154186;27;20357;-75
2023/08/08 09:35:30;;;;;;;3.53;0.60;;;;;;;;;;5154694;27;20152;-75
2023/08/08 09:37:56;;;;;;;2.65;0.60;;;;;;;;;;5153725;27;20058;-74
2023/08/08 09:40:23;;;;;;;1.75;0.65;;;;;;;;;;5154899;27;20106;-75
2023/08/08 09:42:51;;;;;;;3.30;0.60;;;;;;;;;;5154072;27;20354;-75
2023/08/08 09:45:17;;;;;;;1.98;0.70;;;;;;;;;;5154075;27;20456;-75
2023/08/08 09:47:43;;;;;;;2.35;0.50;;;;;;;;;;5153529;27;20027;-73
2023/08/08 09:50:09;;;;;;;3.08;0.70;;;;;;;;;;5154522;27;20080;-75
2023/08/08 09:52:35;;;;;;;2.30;0.98;;;;;;;;;;5153552;27;20425;-74
2023/08/08 09:55:02;;;;;;;3.80;0.70;;;;;;;;;;5154844;27;20015;-75
2023/08/08 09:57:29;;;;;;;2.20;0.80;;;;;;;;;;5155373;27;20034;-76
2023/08/08 09:59:55;;;;;;;2.53;0.60;;;;;;;;;;5154083;27;20034;-75
2023/08/08 10:02:21;;;;;;;4.78;0.80;;;;;;;;;;5153124;27;20087;-75
2023/08/08 10:04:48;;;;;;;2.03;0.82;;;;;;;;;;5154209;27;20027;-76
2023/08/08 10:07:14;;;;;;;3.80;0.70;;;;;;;;;;5154263;27;20027;-74
2023/08/08 10:09:41;;;;;;;6.30;0.90;;;;;;;;;;5153779;27;20463;-74
2023/08/08 10:12:07;;;;;;;3.30;0.75;;;;;;;;;;5153911;27;20019;-76
2023/08/08 10:14:36;;;;;;;1.77;0.73;;;;;;;;;;5151118;27;20027;-74
2023/08/08 10:17:06;;;;;;;6.20;1.33;;;;;;;;;;5152234;27;20479;-77
2023/08/08 10:19:32;;;;;;;2.40;0.60;;;;;;;;;;5151315;27;20019;-75
2023/08/08 10:21:59;;;;;;;2.80;0.50;;;;;;;;;;5152135;27;20029;-77
2023/08/08 10:24:25;;;;;;;0.80;0.60;;;;;;;;;;5150915;27;20030;-76
2023/08/08 10:27:00;;;;;;;2.33;0.70;;;;;;;;;;5151427;27;20054;-75
2023/08/08 10:29:26;;;;;;;2.30;0.70;;;;;;;;;;5151846;27;20039;-74
2023/08/08 10:32:05;;;;;;;3.05;0.73;;;;;;;;;;5151618;27;20089;-76
2023/08/08 10:34:38;;;;;;;1.00;0.50;;;;;;;;;;5150490;27;20497;-78
2023/08/08 10:37:05;;;;;;;3.17;0.90;;;;;;;;;;5151091;27;20038;-74
2023/08/08 10:39:31;;;;;;;4.80;1.00;;;;;;;;;;5151002;27;20035;-74
2023/08/08 10:42:01;;;;;;;1.50;0.60;;;;;;;;;;5150732;27;20109;-74
2023/08/08 10:44:27;;;;;;;2.83;0.50;;;;;;;;;;5151679;27;20027;-75
2023/08/08 10:46:54;;;;;;;2.80;0.52;;;;;;;;;;5152778;27;20022;-74
2023/08/08 10:49:20;;;;;;;5.72;1.02;;;;;;;;;;5151925;27;20117;-75
2023/08/08 10:51:47;;;;;;;2.03;1.13;;;;;;;;;;5153123;27;20134;-74
2023/08/08 10:54:15;;;;;;;4.78;0.98;;;;;;;;;;5153926;27;20515;-75
2023/08/08 10:56:41;;;;;;;1.58;0.70;;;;;;;;;;5152431;27;20027;-76
2023/08/08 10:59:19;;;;;;;2.15;0.60;;;;;;;;;;5152481;27;20046;-76
2023/08/08 11:01:46;;;;;;;2.45;0.73;;;;;;;;;;5153043;27;20019;-75
2023/08/08 11:04:12;;;;;;;3.88;1.02;;;;;;;;;;5152738;27;20151;-74
2023/08/08 11:06:38;;;;;;;3.55;0.80;;;;;;;;;;5151937;27;20026;-75
2023/08/08 11:09:07;;;;;;;2.45;0.70;;;;;;;;;;5154200;27;20039;-73
2023/08/08 11:11:40;;;;;;;2.47;0.80;;;;;;;;;;5154084;27;20030;-74
2023/08/08 11:14:24;;;;;;;3.08;1.25;;;;;;;;;;5152873;27;21432;-75
2023/08/08 11:16:51;;;;;;;1.58;0.70;;;;;;;;;;5153074;27;20480;-75
2023/08/08 11:19:19;;;;;;;2.28;0.57;;;;;;;;;;5152847;27;20035;-76
2023/08/08 11:21:45;;;;;;;2.30;0.80;;;;;;;;;;5154330;27;20022;-74
2023/08/08 11:24:12;;;;;;;5.07;1.13;;;;;;;;;;5153405;27;20591;-75
2023/08/08 11:26:39;;;;;;;2.90;0.65;;;;;;;;;;5152646;27;20022;-73
2023/08/08 11:29:05;;;;;;;2.28;0.70;;;;;;;;;;5151816;27;20200;-76
2023/08/08 11:31:32;;;;;;;2.33;0.70;;;;;;;;;;5154015;27;20027;-73
2023/08/08 11:33:59;;;;;;;3.60;0.82;;;;;;;;;;5152830;27;20380;-75
2023/08/08 11:36:25;;;;;;;1.42;0.52;;;;;;;;;;5153088;27;20411;-75
2023/08/08 11:38:52;;;;;;;1.58;0.70;;;;;;;;;;5152501;27;20051;-74
2023/08/08 11:41:20;;;;;;;2.72;1.00;;;;;;;;;;5153488;27;20022;-74
2023/08/08 11:43:47;;;;;;;3.05;0.65;;;;;;;;;;5152675;27;20034;-73
2023/08/08 11:46:13;;;;;;;3.47;1.20;;;;;;;;;;5153287;27;20091;-76
2023/08/08 11:48:40;;;;;;;2.55;0.80;;;;;;;;;;5151195;27;20027;-74
2023/08/08 11:51:07;;;;;;;2.55;0.95;;;;;;;;;;5151109;27;20022;-73
2023/08/08 11:53:33;;;;;;;3.17;0.95;;;;;;;;;;5151442;27;20229;-74
2023/08/08 11:56:03;;;;;;;4.40;1.10;;;;;;;;;;5153119;27;20022;-76
2023/08/08 11:58:30;;;;;;;;;;;;;;;;;;5153076;27;20034;-74
2023/08/08 12:00:56;;;;;;;2.38;0.70;;;;;;;;;;5150964;27;19903;-76
2023/08/08 12:03:22;;;;;;;3.10;1.05;;;;;;;;;;5150426;27;20063;-76
2023/08/08 12:05:49;;;;;;;2.75;0.90;;;;;;;;;;5151046;27;20023;-74
2023/08/08 12:08:23;;;;;;;3.33;0.82;;;;;;;;;;5150975;27;20033;-77
2023/08/08 12:10:56;;;;;;;2.00;0.90;;;;;;;;;;5151207;27;20031;-76
2023/08/08 12:13:22;;;;;;;1.67;0.60;;;;;;;;;;5152429;27;20047;-75
2023/08/08 12:15:48;;;;;;;2.15;0.90;;;;;;;;;;5151293;27;20380;-76
2023/08/08 12:18:18;;;;;;;3.80;0.70;;;;;;;;;;5149938;27;20523;-76
2023/08/08 12:20:44;;;;;;;2.72;1.00;;;;;;;;;;5151542;27;20042;-76
2023/08/08 12:23:11;;;;;;;2.03;0.73;;;;;;;;;;5151092;27;20388;-77
2023/08/08 12:25:37;;;;;;;2.92;0.93;;;;;;;;;;5149281;27;20522;-75
2023/08/08 12:28:04;;;;;;;3.97;0.88;;;;;;;;;;5151449;27;20015;-76
2023/08/08 12:30:31;;;;;;;2.83;0.70;;;;;;;;;;5151272;27;20021;-75
2023/08/08 12:32:57;;;;;;;2.35;0.90;;;;;;;;;;5150810;27;20015;-77
2023/08/08 12:35:26;;;;;;;8.68;1.13;;;;;;;;;;5149661;27;20019;-75
2023/08/08 12:37:52;;;;;;;2.60;1.00;;;;;;;;;;5149369;27;20049;-75
2023/08/08 12:40:18;;;;;;;4.55;1.20;;;;;;;;;;5150091;27;20109;-76
2023/08/08 12:42:44;;;;;;;4.25;1.02;;;;;;;;;;5148473;27;20113;-76
2023/08/08 12:45:10;;;;;;;2.90;0.90;;;;;;;;;;5149777;27;20102;-75
2023/08/08 12:47:37;;;;;;;4.18;1.25;;;;;;;;;;5149560;27;20019;-75
2023/08/08 12:50:04;;;;;;;5.22;1.48;;;;;;;;;;5150070;27;20105;-76
2023/08/08 12:52:30;;;;;;;3.00;1.02;;;;;;;;;;5151666;27;20075;-75
2023/08/08 12:54:56;;;;;;;4.82;1.08;;;;;;;;;;5151279;27;20091;-76
2023/08/08 12:57:22;;;;;;;3.33;1.10;;;;;;;;;;5151376;27;20681;-77
2023/08/08 12:59:51;;;;;;;2.67;1.23;;;;;;;;;;5155163;27;20076;-76
2023/08/08 13:02:17;;;;;;;3.00;0.90;;;;;;;;;;5155506;27;20117;-74
2023/08/08 13:04:43;;;;;;;3.00;0.90;;;;;;;;;;5153575;27;20454;-75
2023/08/08 13:07:09;;;;;;;5.05;1.00;;;;;;;;;;5155231;27;20033;-79
2023/08/08 13:09:35;;;;;;;2.10;0.90;;;;;;;;;;5155761;27;20014;-73
2023/08/08 13:12:01;;;;;;;3.85;0.82;;;;;;;;;;5154691;27;20049;-76
2023/08/08 13:14:27;;;;;;;2.80;1.20;;;;;;;;;;5154336;27;20555;-76
2023/08/08 13:16:53;;;;;;;4.57;1.10;;;;;;;;;;5155254;27;20105;-75
2023/08/08 13:19:21;;;;;;;2.38;0.70;;;;;;;;;;5156222;27;20037;-76
2023/08/08 13:21:47;;;;;;;2.15;0.85;;;;;;;;;;5154773;27;20067;-76
2023/08/08 13:24:13;;;;;;;2.30;0.80;;;;;;;;;;5156351;27;20049;-76
2023/08/08 13:26:40;;;;;;;1.75;0.90;;;;;;;;;;5156682;27;20079;-79
2023/08/08 13:29:06;;;;;;;4.50;1.30;;;;;;;;;;5156117;27;20076;-77
2023/08/08 13:31:32;;;;;;;3.95;0.98;;;;;;;;;;5155795;27;20087;-75
2023/08/08 13:33:58;;;;;;;1.90;0.93;;;;;;;;;;5154883;27;20018;-78
2023/08/08 13:36:24;;;;;;;3.40;1.10;;;;;;;;;;5155299;27;20029;-77
2023/08/08 13:38:50;;;;;;;3.92;0.98;;;;;;;;;;5153266;27;20077;-78
2023/08/08 13:41:16;;;;;;;3.22;1.30;;;;;;;;;;5155970;27;20023;-76
2023/08/08 13:43:42;;;;;;;4.53;1.38;;;;;;;;;;5155549;27;20464;-76
2023/08/08 13:46:09;;;;;;;2.03;1.05;;;;;;;;;;5152793;27;20034;-75
2023/08/08 13:48:36;;;;;;;4.72;1.10;;;;;;;;;;5154138;27;20499;-76
2023/08/08 13:51:02;;;;;;;3.78;0.90;;;;;;;;;;5154576;27;20027;-78
2023/08/08 13:53:28;;;;;;;7.35;1.67;;;;;;;;;;5154764;27;20057;-76
2023/08/08 13:55:54;;;;;;;5.47;1.10;;;;;;;;;;5154552;27;20030;-76
2023/08/08 13:58:23;;;;;;;6.25;1.05;;;;;;;;;;5154340;27;20403;-76
2023/08/08 14:00:50;;;;;;;2.78;1.20;;;;;;;;;;5155556;27;20027;-77
2023/08/08 14:03:16;;;;;;;5.75;0.98;;;;;;;;;;5154580;27;20023;-75
2023/08/08 14:05:42;;;;;;;3.97;0.90;;;;;;;;;;5153743;27;20056;-78
2023/08/08 14:08:09;;;;;;;4.82;1.30;;;;;;;;;;5154894;27;20395;-77
2023/08/08 14:10:35;;;;;;;6.22;1.40;;;;;;;;;;5151714;27;20029;-76
2023/08/08 14:13:01;;;;;;;4.32;1.45;;;;;;;;;;5154538;27;20114;-75
2023/08/08 14:15:28;;;;;;;4.90;1.38;;;;;;;;;;5154963;27;20473;-77
2023/08/08 14:17:54;;;;;;;4.55;1.23;;;;;;;;;;5154258;27;20118;-76
2023/08/08 14:20:20;;;;;;;3.38;1.38;;;;;;;;;;5153511;27;20560;-76
2023/08/08 14:22:47;;;;;;;4.57;1.15;;;;;;;;;;5153953;27;20484;-77
2023/08/08 14:25:13;;;;;;;4.10;1.35;;;;;;;;;;5152475;27;20083;-76
2023/08/08 14:27:39;;;;;;;2.40;0.90;;;;;;;;;;5151851;27;20054;-74
2023/08/08 14:30:06;;;;;;;3.05;0.70;;;;;;;;;;5153618;27;20061;-76
2023/08/08 14:32:32;;;;;;;4.03;0.90;;;;;;;;;;5154237;27;20472;-76
2023/08/08 14:34:58;;;;;;;2.97;1.27;;;;;;;;;;5154012;27;20031;-78